Airfield :
LOGIN :

Register | Disclaimer

   EN    FR    IT 

 










Legend :    VFR   Marginal VFR   IFR   Intensive IFR   Very Intensive IFR
Visi :
Ceiling :
>= 8 km
>= 3000ft
5 to 8 km
1000 to 3000 ft
1500m to 5 km
500 to 1000 ft
800 to 1500m
200 to 500 ft
< 800m
< 200 ft
Symbols :   Thunderstorms  Fog  Heavy snow  Heavy precipitations  Wind > 20 kt
SIGMETs :     Misc.  Thunderstorms  Icing  Turbulence  Mountain Waves  Volcanic Ashes






- Airport Elevation : 5600 ft
- IATA code : SMV


LSZS - Samedan

CURRENT METAR :
  • 281450Z AUTO 04006KT 010V110 9999 BKN060 11/M02 Q1026

EXPIRED METARs :
  • 281420Z 03007KT 350V090 9999 BKN060 11/M00 Q1026 RMK F
  • 281350Z 04010KT 9999 BKN060 11/M01 Q1026 RMK E
  • 281320Z 31009KT 280V350 9999 BKN060 12/M02 Q1026 RMK D
  • 281250Z AUTO 33007KT 270V020 9999 SCT060 12/M00 Q1027
  • 281220Z 05008KT 020V090 9999 BKN060 11/M03 Q1027 RMK B

TAF TAF LSZS
Valid from the 28 at 15:00 until the 29 at 00:00 UTC


281425Z 2815/2824 31008KT 9999 BKN060 TX13/2815Z
PROB30
TEMPO 2815/2820 SHRA SCT080TCU
ATIS : +41 81 834 93 24



MET'MAP, your aeronautical weather chart ! - Copyright ORBIFLY December 2007 - Disclaimer

ORBIFLY MET'MAP TEAM :

Programming & Development : Alexandra Zaïnal
Concept & original design : Baudouin d'Aumeries
Assistance for programming : Marc-Olivier Méhu
Technical & hardware support : Manuel Goepfert

Contact : metmap@orbifly.com




SOURCES & CREDITS :

   NOAA